Time;durP1;ratioP1;P1;durP2;ratioP2;P2;SDS_P1;SDS_P2;PMS_P1;PMS_P2;Temp;Humidity;BMP_temperature;BMP_pressure;BME280_temperature;BME280_humidity;BME280_pressure;Samples;Min_cycle;Max_cycle;Signal;HPM_P1;HPM_P2
2022/12/07 00:00:55;;;;;;;1.33;1.33;;;4.60;98.40;;;;;;5075349;28;20627;-69
2022/12/07 00:03:21;;;;;;;0.60;0.60;;;4.60;98.40;;;;;;5075139;28;20645;-68
2022/12/07 00:05:47;;;;;;;1.27;1.27;;;4.60;98.30;;;;;;5074938;28;20170;-69
2022/12/07 00:08:12;;;;;;;4.57;4.10;;;4.60;98.30;;;;;;5075015;28;20249;-69
2022/12/07 00:10:38;;;;;;;2.50;1.37;;;4.60;98.30;;;;;;5075144;28;20170;-69
2022/12/07 00:13:03;;;;;;;3.37;3.27;;;4.60;98.30;;;;;;5075122;28;20180;-69
2022/12/07 00:15:29;;;;;;;0.53;0.53;;;4.50;98.20;;;;;;5074785;28;20522;-69
2022/12/07 00:17:54;;;;;;;2.43;2.33;;;4.40;98.40;;;;;;5075109;28;20207;-69
2022/12/07 00:20:20;;;;;;;3.07;1.70;;;4.40;98.50;;;;;;5073634;28;20166;-69
2022/12/07 00:22:46;;;;;;;1.23;0.63;;;4.30;98.50;;;;;;5074874;28;20171;-68
2022/12/07 00:25:11;;;;;;;0.63;0.63;;;4.30;98.70;;;;;;5074560;28;20200;-69
2022/12/07 00:27:37;;;;;;;0.40;0.40;;;4.30;98.90;;;;;;5074617;28;20724;-69
2022/12/07 00:30:03;;;;;;;0.80;0.80;;;4.30;98.80;;;;;;5074549;28;20193;-68
2022/12/07 00:32:28;;;;;;;2.40;2.30;;;4.20;98.70;;;;;;5074535;28;20228;-68
2022/12/07 00:34:54;;;;;;;0.60;0.60;;;4.00;99.30;;;;;;5074386;28;20396;-69
2022/12/07 00:37:20;;;;;;;0.93;0.93;;;3.90;99.40;;;;;;5074197;28;20205;-68
2022/12/07 00:39:46;;;;;;;3.53;3.33;;;3.90;99.70;;;;;;5073134;28;20576;-69
2022/12/07 00:42:12;;;;;;;3.03;2.22;;;3.90;99.70;;;;;;5074578;28;20504;-68
2022/12/07 00:44:37;;;;;;;3.83;2.27;;;4.00;99.80;;;;;;5074322;28;20196;-69
2022/12/07 00:47:03;;;;;;;2.50;2.33;;;4.10;99.80;;;;;;5074422;28;20186;-69
2022/12/07 00:49:28;;;;;;;3.23;3.03;;;4.20;99.70;;;;;;5074267;28;20234;-69
2022/12/07 00:51:54;;;;;;;0.60;0.60;;;4.10;99.20;;;;;;5074315;28;20169;-69
2022/12/07 00:54:20;;;;;;;2.10;2.00;;;4.00;99.20;;;;;;5074091;28;20169;-68
2022/12/07 00:56:45;;;;;;;0.50;0.50;;;4.00;99.40;;;;;;5072885;28;20189;-68
2022/12/07 00:59:14;;;;;;;0.50;0.50;;;4.00;99.50;;;;;;5073224;28;20284;-69
2022/12/07 01:01:41;;;;;;;1.75;1.67;;;4.00;99.60;;;;;;5074047;28;20163;-69
2022/12/07 01:04:06;;;;;;;2.45;2.33;;;4.10;99.70;;;;;;5074049;28;20172;-67
2022/12/07 01:06:32;;;;;;;2.17;2.07;;;4.20;99.70;;;;;;5072668;28;20545;-68
2022/12/07 01:08:58;;;;;;;2.43;2.33;;;4.40;99.50;;;;;;5072667;28;20180;-68
2022/12/07 01:11:27;;;;;;;3.50;3.15;;;4.40;99.20;;;;;;5074013;28;20191;-68
2022/12/07 01:13:55;;;;;;;3.30;2.88;;;4.40;99.00;;;;;;5073999;28;20173;-69
2022/12/07 01:16:22;;;;;;;1.80;1.70;;;4.40;99.00;;;;;;5073646;28;20562;-68
2022/12/07 01:18:50;;;;;;;1.35;1.25;;;4.40;98.90;;;;;;5073709;28;20193;-69
2022/12/07 01:21:37;;;;;;;1.60;1.60;;;4.40;98.90;;;;;;5073981;28;20267;-68
2022/12/07 01:24:04;;;;;;;0.60;0.60;;;4.40;98.80;;;;;;5073767;28;20162;-68
2022/12/07 01:26:30;;;;;;;2.65;2.45;;;4.40;98.90;;;;;;5073561;28;20177;-68
2022/12/07 01:28:58;;;;;;;3.00;1.30;;;4.40;98.90;;;;;;5073804;28;20261;-69
2022/12/07 01:31:25;;;;;;;0.95;0.95;;;4.40;98.90;;;;;;5073666;28;20169;-69
2022/12/07 01:33:53;;;;;;;1.85;0.95;;;4.40;98.90;;;;;;5073682;28;20188;-68
2022/12/07 01:36:30;;;;;;;1.10;1.10;;;4.50;98.90;;;;;;5073307;28;20173;-68
2022/12/07 01:38:59;;;;;;;3.20;2.92;;;4.50;98.90;;;;;;5073448;28;20284;-69
2022/12/07 01:41:27;;;;;;;7.22;2.15;;;4.40;98.90;;;;;;5073517;28;20245;-68
2022/12/07 01:44:16;;;;;;;1.63;1.52;;;4.40;99.00;;;;;;5073658;28;20635;-68
2022/12/07 01:46:55;;;;;;;1.77;1.48;;;4.50;99.00;;;;;;5073528;28;20204;-69
2022/12/07 01:49:28;;;;;;;0.50;0.50;;;4.50;98.90;;;;;;5072114;28;20177;-69
2022/12/07 01:52:17;;;;;;;0.90;0.90;;;4.50;98.90;;;;;;5073669;28;20170;-69
2022/12/07 01:54:45;;;;;;;2.35;1.77;;;4.40;98.80;;;;;;5072971;28;20605;-69
2022/12/07 01:57:13;;;;;;;2.35;2.25;;;4.40;98.90;;;;;;5073455;28;20243;-68
2022/12/07 01:59:39;;;;;;;1.48;1.40;;;4.40;99.10;;;;;;5073171;28;20297;-69
2022/12/07 02:02:13;;;;;;;8.70;2.42;;;4.40;99.10;;;;;;5073270;28;20580;-69
2022/12/07 02:04:39;;;;;;;2.60;1.10;;;4.40;99.10;;;;;;5073323;28;20210;-69
2022/12/07 02:07:06;;;;;;;1.13;1.13;;;4.40;98.90;;;;;;5073160;28;20594;-69
2022/12/07 02:09:31;;;;;;;1.63;1.55;;;4.40;98.90;;;;;;5073319;28;20419;-68
2022/12/07 02:11:57;;;;;;;0.50;0.50;;;4.40;99.00;;;;;;5076944;28;20541;-67
2022/12/07 02:14:23;;;;;;;4.13;2.87;;;4.50;99.00;;;;;;5077754;28;20184;-69
2022/12/07 02:17:00;;;;;;;1.10;1.00;;;4.50;98.80;;;;;;5077295;28;20427;-68
2022/12/07 02:19:53;;;;;;;3.70;3.50;;;4.40;98.90;;;;;;5077025;28;20220;-69
2022/12/07 02:22:22;;;;;;;0.77;0.77;;;4.40;99.10;;;;;;5077378;28;20584;-69
2022/12/07 02:25:14;;;;;;;1.52;1.42;;;4.40;99.10;;;;;;5077215;28;20168;-69
2022/12/07 02:27:43;;;;;;;1.33;1.23;;;4.40;99.20;;;;;;5076319;28;20204;-68
2022/12/07 02:30:13;;;;;;;3.90;1.65;;;4.40;99.20;;;;;;5077069;28;20192;-69
2022/12/07 02:32:58;;;;;;;2.65;2.45;;;4.30;99.10;;;;;;5077192;28;20173;-68
2022/12/07 02:35:50;;;;;;;1.30;1.30;;;4.30;99.20;;;;;;5076818;28;20163;-69
2022/12/07 02:38:22;;;;;;;3.00;2.80;;;4.40;99.30;;;;;;5076101;28;20249;-68
2022/12/07 02:40:54;;;;;;;3.10;2.80;;;4.40;99.30;;;;;;5076867;28;20165;-68
2022/12/07 02:43:25;;;;;;;0.85;0.85;;;4.30;99.00;;;;;;5076865;28;20166;-69
2022/12/07 02:45:53;;;;;;;2.55;2.33;;;4.30;99.20;;;;;;5075326;28;20197;-68
2022/12/07 02:48:20;;;;;;;3.83;3.63;;;4.30;99.30;;;;;;5076491;28;20193;-68
2022/12/07 02:50:51;;;;;;;5.47;1.58;;;4.30;99.40;;;;;;5076648;28;20166;-68
2022/12/07 02:53:34;;;;;;;2.65;1.75;;;4.30;99.30;;;;;;5076686;28;20650;-68
2022/12/07 02:56:23;;;;;;;1.38;1.20;;;4.40;99.20;;;;;;5076335;28;20181;-69
2022/12/07 02:59:20;;;;;;;2.05;1.95;;;4.40;99.10;;;;;;5075873;28;20213;-69
2022/12/07 03:02:04;;;;;;;4.03;3.72;;;4.50;99.10;;;;;;5076489;28;20170;-68
2022/12/07 03:04:32;;;;;;;1.83;1.73;;;4.50;99.10;;;;;;5076365;28;20172;-69
2022/12/07 03:07:18;;;;;;;1.25;1.15;;;4.50;99.00;;;;;;5076290;28;20199;-68
2022/12/07 03:10:24;;;;;;;1.70;1.63;;;4.50;99.00;;;;;;5076432;28;20193;-69
2022/12/07 03:13:05;;;;;;;1.30;1.30;;;4.40;98.80;;;;;;5075500;28;20547;-68
2022/12/07 03:15:49;;;;;;;5.10;4.68;;;4.30;99.00;;;;;;5076012;28;20174;-69
2022/12/07 03:18:19;;;;;;;0.70;0.60;;;4.20;99.20;;;;;;5075989;28;20560;-68
2022/12/07 03:20:47;;;;;;;3.05;1.33;;;4.20;99.30;;;;;;5076195;28;20589;-69
2022/12/07 03:23:17;;;;;;;1.92;0.88;;;4.20;99.50;;;;;;5075085;28;20196;-69
2022/12/07 03:25:51;;;;;;;0.50;0.50;;;4.30;99.60;;;;;;5075759;28;20173;-68
2022/12/07 03:28:20;;;;;;;4.93;4.25;;;4.30;99.50;;;;;;5075908;28;20194;-67
2022/12/07 03:30:54;;;;;;;3.72;3.55;;;4.40;99.50;;;;;;5075973;28;20170;-68
2022/12/07 03:33:21;;;;;;;1.80;1.20;;;4.40;99.20;;;;;;5076035;28;20170;-68
2022/12/07 03:36:02;;;;;;;1.88;1.55;;;4.40;99.10;;;;;;5075475;28;20598;-68
2022/12/07 03:38:46;;;;;;;3.53;3.42;;;4.40;99.20;;;;;;5075505;28;20209;-68
2022/12/07 03:41:24;;;;;;;1.83;1.38;;;4.40;99.10;;;;;;5075873;28;20184;-68
2022/12/07 03:43:50;;;;;;;0.88;0.88;;;4.40;99.00;;;;;;5075760;28;20173;-69
2022/12/07 03:46:31;;;;;;;3.40;3.20;;;4.40;99.10;;;;;;5075306;28;20178;-68
2022/12/07 03:49:04;;;;;;;1.80;1.70;;;4.20;99.20;;;;;;5075659;28;20639;-69
2022/12/07 03:51:39;;;;;;;0.40;0.40;;;4.20;99.50;;;;;;5075633;28;20284;-68
2022/12/07 03:54:15;;;;;;;0.90;0.90;;;4.20;99.70;;;;;;5075313;28;20201;-68
2022/12/07 03:56:43;;;;;;;1.30;1.20;;;4.30;99.70;;;;;;5074050;28;20196;-68
2022/12/07 03:59:10;;;;;;;1.45;1.45;;;4.30;99.60;;;;;;5075359;28;20193;-69
2022/12/07 04:01:36;;;;;;;2.78;2.67;;;4.40;99.40;;;;;;5075281;28;20169;-68
2022/12/07 04:04:02;;;;;;;0.60;0.60;;;4.40;99.10;;;;;;5074967;28;20173;-68
2022/12/07 04:06:27;;;;;;;0.67;0.63;;;4.40;99.30;;;;;;5075232;28;20168;-68
2022/12/07 04:08:53;;;;;;;0.50;0.50;;;4.30;99.30;;;;;;5075039;28;20271;-68
2022/12/07 04:11:18;;;;;;;0.30;0.30;;;4.20;99.30;;;;;;5075222;28;20215;-68
2022/12/07 04:16:28;;;;;;;1.15;1.15;;;4.20;99.00;;;;;;5075170;28;20542;-67
2022/12/07 04:18:54;;;;;;;0.90;0.90;;;4.30;99.10;;;;;;5074859;28;20276;-68
2022/12/07 04:21:19;;;;;;;3.83;3.60;;;4.20;99.20;;;;;;5075019;28;20170;-69
2022/12/07 04:23:45;;;;;;;3.70;1.67;;;4.10;99.30;;;;;;5074831;28;20244;-68
2022/12/07 04:26:10;;;;;;;1.77;1.67;;;4.10;99.60;;;;;;5074579;28;20169;-69
2022/12/07 04:28:36;;;;;;;0.73;0.67;;;4.10;99.80;;;;;;5074717;28;20174;-68
2022/12/07 04:31:02;;;;;;;1.53;1.43;;;4.10;99.80;;;;;;5073563;28;20178;-67
2022/12/07 04:33:27;;;;;;;3.37;1.73;;;4.20;99.90;;;;;;5074793;28;20536;-69
2022/12/07 04:35:53;;;;;;;4.10;3.07;;;4.20;99.80;;;;;;5074364;28;20205;-68
2022/12/07 04:38:19;;;;;;;6.23;2.83;;;4.20;99.80;;;;;;5074259;28;20303;-68
2022/12/07 04:40:44;;;;;;;2.57;2.37;;;4.30;99.80;;;;;;5074480;28;20166;-67
2022/12/07 04:43:10;;;;;;;0.90;0.90;;;4.30;99.70;;;;;;5074761;28;20169;-69
2022/12/07 04:45:35;;;;;;;2.10;1.60;;;4.30;99.60;;;;;;5074164;28;20162;-68
2022/12/07 04:48:01;;;;;;;3.43;3.23;;;4.30;99.50;;;;;;5074384;28;20193;-68
2022/12/07 04:50:27;;;;;;;0.83;0.83;;;4.30;99.50;;;;;;5074181;28;20180;-68
2022/12/07 04:52:53;;;;;;;1.87;1.87;;;4.30;99.70;;;;;;5074444;28;20412;-69
2022/12/07 04:55:18;;;;;;;1.27;1.17;;;4.30;99.70;;;;;;5074183;28;20169;-68
2022/12/07 04:57:44;;;;;;;0.50;0.50;;;4.30;99.80;;;;;;5074056;28;20272;-69
2022/12/07 05:00:10;;;;;;;1.83;1.77;;;4.30;99.60;;;;;;5074186;28;20166;-68
2022/12/07 05:02:35;;;;;;;1.40;1.05;;;4.30;99.60;;;;;;5074274;28;20174;-69
2022/12/07 05:05:01;;;;;;;3.33;2.87;;;4.30;99.70;;;;;;5073892;28;20615;-68
2022/12/07 05:07:27;;;;;;;2.70;2.60;;;4.30;99.70;;;;;;5073891;28;20268;-68
2022/12/07 05:09:52;;;;;;;3.33;3.13;;;4.30;99.70;;;;;;5073846;28;20166;-68
2022/12/07 05:12:18;;;;;;;4.63;3.17;;;4.40;99.60;;;;;;5074009;28;20623;-68
2022/12/07 05:14:44;;;;;;;3.37;3.17;;;4.40;99.50;;;;;;5073689;28;20168;-69
2022/12/07 05:17:11;;;;;;;1.63;1.53;;;4.30;99.50;;;;;;5074077;28;20320;-68
2022/12/07 05:19:36;;;;;;;2.20;2.00;;;4.30;99.50;;;;;;5073725;28;20276;-68
2022/12/07 05:22:02;;;;;;;1.83;1.73;;;4.40;99.40;;;;;;5073975;28;20628;-69
2022/12/07 05:24:28;;;;;;;1.90;1.80;;;4.40;99.20;;;;;;5073786;28;20276;-68
2022/12/07 05:26:53;;;;;;;6.23;2.73;;;4.40;99.10;;;;;;5073586;28;20192;-67
2022/12/07 05:29:19;;;;;;;2.33;1.83;;;4.30;99.00;;;;;;5073738;28;20219;-69
2022/12/07 05:31:45;;;;;;;0.93;0.93;;;4.20;99.10;;;;;;5073845;28;20702;-69
2022/12/07 05:34:12;;;;;;;2.97;2.75;;;4.10;99.40;;;;;;5073609;28;20570;-69
2022/12/07 05:36:37;;;;;;;1.15;1.15;;;4.10;99.50;;;;;;5073352;28;20197;-69
2022/12/07 05:39:03;;;;;;;1.70;1.63;;;4.10;99.60;;;;;;5073712;28;20280;-69
2022/12/07 05:44:13;;;;;;;0.68;0.68;;;4.10;99.80;;;;;;5073546;28;20181;-68
2022/12/07 05:46:39;;;;;;;3.47;3.27;;;4.10;99.80;;;;;;5073119;28;20181;-68
2022/12/07 05:49:05;;;;;;;0.77;0.77;;;4.10;99.70;;;;;;5073507;28;20400;-68
2022/12/07 05:51:30;;;;;;;2.37;1.90;;;4.10;99.60;;;;;;5073365;28;20227;-68
2022/12/07 05:53:56;;;;;;;2.93;2.73;;;4.00;99.70;;;;;;5073537;28;20404;-68
2022/12/07 05:56:22;;;;;;;2.63;2.43;;;4.00;99.90;;;;;;5073268;28;20193;-69
2022/12/07 06:01:32;;;;;;;1.10;1.10;;;4.00;99.80;;;;;;5073362;28;20547;-68
2022/12/07 06:03:58;;;;;;;2.43;1.80;;;4.00;99.80;;;;;;5073340;28;20173;-67
2022/12/07 06:06:23;;;;;;;1.33;1.10;;;4.00;99.80;;;;;;5073131;28;20240;-67
2022/12/07 06:08:49;;;;;;;1.63;1.53;;;4.00;99.80;;;;;;5073251;28;20586;-68
2022/12/07 06:13:59;;;;;;;0.40;0.40;;;4.10;99.50;;;;;;5073489;28;20599;-68
2022/12/07 06:16:24;;;;;;;2.20;1.70;;;4.00;99.50;;;;;;5072932;28;20177;-68
2022/12/07 06:18:50;;;;;;;2.00;1.03;;;3.90;99.50;;;;;;5072977;28;20292;-69
2022/12/07 06:21:15;;;;;;;1.20;1.17;;;3.90;99.60;;;;;;5073222;28;20197;-67
2022/12/07 06:23:41;;;;;;;1.03;1.03;;;3.90;99.70;;;;;;5073205;28;20252;-68
2022/12/07 06:26:07;;;;;;;1.73;1.63;;;3.90;99.70;;;;;;5073081;28;20254;-68
2022/12/07 06:28:41;;;;;;;0.70;0.70;;;3.90;99.70;;;;;;5074761;28;20215;-69
2022/12/07 06:31:11;;;;;;;0.82;0.82;;;3.90;99.50;;;;;;5074464;28;20176;-67
2022/12/07 06:33:36;;;;;;;0.60;0.60;;;3.90;99.40;;;;;;5071610;28;20650;-68
2022/12/07 06:36:02;;;;;;;1.03;1.03;;;3.80;99.30;;;;;;5072936;28;20414;-68
2022/12/07 06:38:28;;;;;;;0.60;0.60;;;3.70;99.30;;;;;;5072646;28;20209;-68
2022/12/07 06:40:53;;;;;;;0.47;0.47;;;3.70;99.30;;;;;;5073029;28;20649;-68
2022/12/07 06:43:19;;;;;;;0.47;0.47;;;3.70;99.20;;;;;;5072700;28;20256;-68
2022/12/07 06:45:44;;;;;;;0.73;0.73;;;3.70;99.30;;;;;;5072826;28;20180;-68
2022/12/07 06:48:10;;;;;;;0.40;0.40;;;3.70;99.30;;;;;;5072786;28;20197;-68
2022/12/07 06:50:36;;;;;;;0.40;0.40;;;3.70;99.10;;;;;;5072656;28;20178;-69
2022/12/07 06:53:01;;;;;;;0.57;0.57;;;3.70;99.10;;;;;;5072206;28;20263;-68
2022/12/07 06:55:27;;;;;;;0.50;0.50;;;3.60;99.10;;;;;;5072657;28;20203;-68
2022/12/07 06:57:53;;;;;;;0.40;0.40;;;3.60;99.20;;;;;;5073474;28;20251;-68
2022/12/07 07:00:19;;;;;;;0.40;0.40;;;3.50;99.30;;;;;;5075176;28;20208;-67
2022/12/07 07:02:45;;;;;;;0.40;0.40;;;3.60;99.40;;;;;;5075667;28;20189;-68
2022/12/07 07:05:10;;;;;;;1.70;1.60;;;3.70;99.40;;;;;;5076054;28;20630;-68
2022/12/07 07:07:36;;;;;;;1.00;1.00;;;3.70;99.40;;;;;;5076198;28;20185;-69
2022/12/07 07:10:03;;;;;;;0.40;0.40;;;3.60;99.30;;;;;;5076197;28;20173;-69
2022/12/07 07:12:28;;;;;;;3.08;2.88;;;3.60;99.30;;;;;;5075965;28;20222;-67
2022/12/07 07:14:54;;;;;;;0.90;0.90;;;3.60;99.40;;;;;;5076270;28;20173;-68
2022/12/07 07:17:20;;;;;;;0.83;0.83;;;3.70;99.50;;;;;;5076090;28;20544;-69
2022/12/07 07:19:45;;;;;;;1.77;1.13;;;3.70;99.40;;;;;;5076098;28;20264;-69
2022/12/07 07:22:11;;;;;;;1.23;1.13;;;3.70;99.30;;;;;;5076117;28;20177;-69
2022/12/07 07:24:36;;;;;;;1.27;1.20;;;3.70;99.20;;;;;;5075953;28;20528;-68
2022/12/07 07:27:02;;;;;;;0.80;0.80;;;3.70;98.60;;;;;;5076279;28;20189;-68
2022/12/07 07:29:28;;;;;;;0.50;0.50;;;3.60;98.40;;;;;;5076096;28;20177;-68
2022/12/07 07:31:53;;;;;;;0.50;0.50;;;3.60;98.30;;;;;;5075920;28;20169;-68
2022/12/07 07:34:19;;;;;;;0.40;0.40;;;3.50;98.10;;;;;;5075849;28;20587;-68
2022/12/07 07:36:45;;;;;;;0.40;0.40;;;3.30;97.70;;;;;;5075655;28;20201;-68
2022/12/07 07:39:12;;;;;;;2.30;2.10;;;3.20;97.90;;;;;;5074721;28;20798;-69
2022/12/07 07:41:38;;;;;;;0.30;0.30;;;3.10;98.10;;;;;;5075665;28;20431;-68
2022/12/07 07:44:04;;;;;;;0.60;0.60;;;3.10;98.40;;;;;;5075485;28;20201;-67
2022/12/07 07:46:30;;;;;;;0.60;0.60;;;3.10;98.50;;;;;;5075870;28;20693;-67
2022/12/07 07:48:55;;;;;;;0.55;0.55;;;3.00;98.60;;;;;;5075529;28;20166;-69
2022/12/07 07:51:21;;;;;;;0.40;0.40;;;3.10;98.70;;;;;;5075681;28;20535;-68
2022/12/07 07:53:47;;;;;;;0.50;0.50;;;3.10;98.80;;;;;;5075390;28;20214;-68
2022/12/07 07:56:12;;;;;;;0.40;0.40;;;3.20;98.90;;;;;;5073857;28;20177;-68
2022/12/07 07:58:39;;;;;;;0.30;0.30;;;3.20;98.70;;;;;;5075212;28;20446;-68
2022/12/07 08:01:06;;;;;;;0.75;0.75;;;3.20;98.70;;;;;;5075508;28;20164;-68
2022/12/07 08:03:31;;;;;;;2.80;2.35;;;3.20;98.70;;;;;;5075352;28;20543;-68
2022/12/07 08:05:57;;;;;;;0.97;0.97;;;3.20;98.90;;;;;;5074872;28;20174;-69
2022/12/07 08:08:22;;;;;;;0.77;0.77;;;3.30;98.80;;;;;;5074660;28;20185;-68
2022/12/07 08:10:48;;;;;;;0.40;0.40;;;3.40;97.90;;;;;;5074776;28;20198;-68
2022/12/07 08:13:16;;;;;;;0.40;0.40;;;3.30;97.70;;;;;;5074989;28;20197;-68
2022/12/07 08:15:47;;;;;;;0.50;0.50;;;3.30;97.60;;;;;;5074829;28;20600;-68
2022/12/07 08:18:13;;;;;;;0.60;0.60;;;3.40;97.80;;;;;;5074835;28;20225;-68
2022/12/07 08:20:40;;;;;;;0.80;0.80;;;3.50;97.70;;;;;;5073819;28;20673;-68
2022/12/07 08:23:07;;;;;;;0.88;0.60;;;3.50;97.30;;;;;;5074733;28;20203;-67
2022/12/07 08:25:33;;;;;;;1.05;1.02;;;3.50;97.20;;;;;;5074686;28;20181;-68
2022/12/07 08:28:00;;;;;;;0.40;0.40;;;3.40;97.10;;;;;;5074698;28;20235;-68
2022/12/07 08:30:28;;;;;;;0.30;0.30;;;3.40;97.20;;;;;;5074738;28;20554;-67
2022/12/07 08:32:54;;;;;;;0.82;0.60;;;3.40;97.20;;;;;;5074753;28;20248;-67
2022/12/07 08:35:20;;;;;;;0.63;0.63;;;3.30;97.10;;;;;;5074421;28;20196;-68
2022/12/07 08:37:46;;;;;;;0.50;0.50;;;3.20;97.30;;;;;;5074040;28;20201;-68
2022/12/07 08:40:15;;;;;;;0.73;0.73;;;3.10;97.50;;;;;;5074087;28;20173;-69
2022/12/07 08:42:44;;;;;;;1.25;1.25;;;3.10;97.80;;;;;;5072990;28;20711;-67
2022/12/07 08:45:12;;;;;;;0.82;0.77;;;3.10;98.00;;;;;;5073966;28;20612;-68
2022/12/07 08:47:49;;;;;;;1.17;1.13;;;3.10;98.00;;;;;;5074908;28;20260;-69
2022/12/07 08:50:16;;;;;;;0.50;0.50;;;3.20;98.40;;;;;;5074240;28;20161;-69
2022/12/07 08:52:42;;;;;;;0.40;0.40;;;3.50;98.80;;;;;;5074441;28;20252;-68
2022/12/07 08:55:10;;;;;;;14.02;1.20;;;3.90;97.50;;;;;;5074095;28;20214;-69
2022/12/07 08:57:37;;;;;;;2.22;2.13;;;4.10;96.90;;;;;;5074168;28;20520;-68
2022/12/07 09:00:04;;;;;;;1.15;0.98;;;4.20;96.80;;;;;;5074073;28;20278;-69
2022/12/07 09:02:31;;;;;;;0.95;0.95;;;4.40;97.00;;;;;;5074024;28;20172;-69
2022/12/07 09:04:57;;;;;;;1.15;1.15;;;5.00;97.50;;;;;;5074002;28;20171;-69
2022/12/07 09:07:23;;;;;;;3.97;3.70;;;6.20;95.90;;;;;;5073942;28;20578;-69
2022/12/07 09:09:48;;;;;;;1.93;1.83;;;8.10;93.60;;;;;;5074194;28;20165;-69
2022/12/07 09:12:14;;;;;;;1.00;1.00;;;10.20;87.70;;;;;;5073305;28;20418;-69
2022/12/07 09:14:40;;;;;;;1.23;0.90;;;12.20;78.80;;;;;;5074005;28;20174;-69
2022/12/07 09:17:11;;;;;;;2.23;1.40;;;13.40;71.10;;;;;;5073383;28;20567;-69
2022/12/07 09:19:37;;;;;;;1.17;1.07;;;14.10;66.80;;;;;;5072787;28;20205;-69
2022/12/07 09:22:04;;;;;;;0.60;0.60;;;14.70;63.50;;;;;;5073635;28;20406;-70
2022/12/07 09:24:31;;;;;;;1.63;1.53;;;15.40;60.40;;;;;;5072992;28;20770;-70
2022/12/07 09:26:57;;;;;;;1.10;0.87;;;16.20;56.90;;;;;;5073741;28;20526;-69
2022/12/07 09:29:23;;;;;;;1.93;1.67;;;16.80;54.40;;;;;;5072781;28;20410;-70
2022/12/07 09:31:49;;;;;;;0.77;0.77;;;17.40;53.30;;;;;;5072129;28;20462;-70
2022/12/07 09:34:15;;;;;;;0.77;0.77;;;18.00;51.70;;;;;;5072591;28;20409;-70
2022/12/07 09:36:42;;;;;;;1.43;1.13;;;18.50;48.80;;;;;;5072511;28;20204;-70
2022/12/07 09:39:07;;;;;;;1.40;0.90;;;19.10;47.00;;;;;;5072686;28;20181;-70
2022/12/07 09:41:42;;;;;;;0.77;0.77;;;19.30;46.40;;;;;;5072557;28;20451;-70
2022/12/07 09:44:13;;;;;;;0.50;0.47;;;19.60;45.30;;;;;;5072493;28;20404;-70
2022/12/07 09:46:42;;;;;;;0.60;0.60;;;19.50;44.80;;;;;;5073881;28;20935;-70
2022/12/07 09:49:18;;;;;;;1.57;1.17;;;19.80;43.70;;;;;;5073436;28;20371;-69
2022/12/07 09:51:45;;;;;;;0.43;0.40;;;18.90;43.00;;;;;;5073617;28;20381;-70
2022/12/07 09:54:17;;;;;;;0.47;0.47;;;18.40;43.70;;;;;;5073357;28;20413;-70
2022/12/07 09:56:44;;;;;;;0.43;0.43;;;17.90;44.00;;;;;;5073453;28;20456;-69
2022/12/07 09:59:17;;;;;;;0.40;0.40;;;17.80;43.10;;;;;;5073298;28;20462;-69
2022/12/07 10:01:44;;;;;;;0.80;0.67;;;17.30;44.00;;;;;;5073534;28;20404;-70
2022/12/07 10:04:18;;;;;;;0.50;0.50;;;16.70;44.60;;;;;;5073279;28;20411;-69
2022/12/07 10:06:45;;;;;;;0.60;0.60;;;15.90;45.00;;;;;;5073444;28;20790;-69
2022/12/07 10:09:12;;;;;;;1.27;1.17;;;15.40;47.40;;;;;;5073227;28;20885;-69
2022/12/07 10:12:08;;;;;;;0.50;0.50;;;15.30;47.50;;;;;;5073485;28;20737;-70
2022/12/07 10:14:37;;;;;;;1.00;1.00;;;14.90;48.30;;;;;;5073121;28;20975;-70
2022/12/07 10:17:02;;;;;;;1.33;1.23;;;14.50;48.30;;;;;;5073274;28;20466;-70
2022/12/07 10:19:29;;;;;;;0.40;0.40;;;13.90;48.60;;;;;;5073008;28;20479;-70
2022/12/07 10:22:11;;;;;;;1.23;0.60;;;13.90;49.10;;;;;;5073375;28;20166;-69
2022/12/07 10:24:40;;;;;;;1.23;1.13;;;14.20;48.80;;;;;;5072834;28;20408;-69
2022/12/07 10:27:18;;;;;;;0.97;0.70;;;13.80;48.10;;;;;;5073111;28;20776;-69
2022/12/07 10:29:49;;;;;;;0.50;0.50;;;12.90;48.80;;;;;;5073130;28;20431;-68
2022/12/07 10:32:15;;;;;;;0.63;0.63;;;12.10;49.60;;;;;;5075799;28;20857;-70
2022/12/07 10:34:41;;;;;;;1.13;1.07;;;11.70;50.70;;;;;;5076233;28;20424;-68
2022/12/07 10:37:13;;;;;;;0.57;0.57;;;11.30;50.60;;;;;;5076654;28;20262;-68
2022/12/07 10:39:54;;;;;;;0.43;0.43;;;11.00;51.10;;;;;;5077196;28;20451;-68
2022/12/07 10:42:29;;;;;;;0.50;0.50;;;10.10;52.20;;;;;;5076957;28;20392;-69
2022/12/07 10:45:15;;;;;;;0.40;0.40;;;9.80;54.70;;;;;;5076737;28;20533;-69
2022/12/07 10:48:02;;;;;;;0.50;0.50;;;8.70;55.80;;;;;;5076568;28;20423;-68
2022/12/07 10:50:47;;;;;;;0.65;0.65;;;7.50;58.50;;;;;;5077009;28;20169;-69
2022/12/07 10:53:42;;;;;;;0.30;0.30;;;7.00;63.20;;;;;;5077167;28;20177;-69
2022/12/07 10:56:40;;;;;;;0.70;0.70;;;6.70;68.60;;;;;;5076241;28;20509;-68
2022/12/07 10:59:14;;;;;;;0.43;0.43;;;6.40;71.80;;;;;;5075806;28;20219;-69
2022/12/07 11:01:58;;;;;;;0.30;0.30;;;6.30;71.00;;;;;;5076534;28;20170;-69
2022/12/07 11:04:45;;;;;;;0.43;0.43;;;6.00;73.40;;;;;;5076629;28;20168;-68
2022/12/07 11:07:33;;;;;;;0.45;0.45;;;5.90;76.90;;;;;;5075140;28;20200;-69
2022/12/07 11:10:08;;;;;;;0.40;0.40;;;6.00;79.30;;;;;;5075645;28;20178;-68
2022/12/07 11:13:01;;;;;;;0.82;0.82;;;5.80;79.70;;;;;;5076520;28;20202;-69
2022/12/07 11:15:40;;;;;;;1.77;1.50;;;5.80;80.00;;;;;;5075203;28;20631;-69
2022/12/07 11:18:26;;;;;;;0.77;0.77;;;5.80;81.50;;;;;;5076091;28;20186;-69
2022/12/07 11:21:18;;;;;;;0.40;0.40;;;5.80;81.60;;;;;;5076315;28;20177;-69
2022/12/07 11:24:09;;;;;;;0.98;0.50;;;5.80;82.00;;;;;;5075495;28;20870;-68
2022/12/07 11:26:47;;;;;;;0.40;0.40;;;5.50;83.70;;;;;;5076127;28;20193;-68
2022/12/07 11:29:36;;;;;;;0.40;0.40;;;5.10;87.20;;;;;;5075855;28;20558;-69
2022/12/07 11:32:32;;;;;;;2.30;2.10;;;4.90;83.60;;;;;;5076007;28;20201;-69
2022/12/07 11:35:24;;;;;;;0.50;0.50;;;4.90;81.40;;;;;;5075784;28;20174;-69
2022/12/07 11:37:58;;;;;;;0.50;0.50;;;4.90;78.60;;;;;;5075244;28;20263;-68
2022/12/07 11:40:34;;;;;;;0.40;0.40;;;5.00;77.40;;;;;;5075717;28;20652;-69
2022/12/07 11:43:24;;;;;;;0.40;0.40;;;5.30;74.80;;;;;;5074927;28;20230;-68
2022/12/07 11:45:57;;;;;;;0.40;0.40;;;5.60;71.50;;;;;;5075730;28;20167;-69
2022/12/07 11:48:30;;;;;;;0.30;0.30;;;5.80;64.10;;;;;;5075570;28;20611;-69
2022/12/07 11:51:02;;;;;;;0.30;0.30;;;6.00;64.60;;;;;;5075876;28;20253;-68
2022/12/07 11:53:53;;;;;;;1.20;0.75;;;6.00;61.80;;;;;;5075672;28;20165;-68
2022/12/07 11:56:26;;;;;;;0.35;0.35;;;5.60;59.40;;;;;;5075048;28;20194;-67
2022/12/07 11:59:00;;;;;;;0.35;0.35;;;5.40;59.70;;;;;;5075253;28;20225;-69
2022/12/07 12:01:35;;;;;;;0.38;0.38;;;5.10;60.70;;;;;;5075516;28;20166;-68
2022/12/07 12:04:09;;;;;;;0.30;0.30;;;4.90;61.70;;;;;;5075445;28;20585;-69
2022/12/07 12:06:39;;;;;;;0.30;0.30;;;5.00;61.40;;;;;;5075180;28;20278;-69
2022/12/07 12:09:25;;;;;;;0.98;0.98;;;4.80;60.90;;;;;;5073903;28;20231;-69
2022/12/07 12:11:54;;;;;;;0.40;0.40;;;4.70;60.90;;;;;;5075781;28;20177;-68
2022/12/07 12:14:19;;;;;;;0.60;0.60;;;4.90;60.40;;;;;;5075097;28;20196;-69
2022/12/07 12:16:59;;;;;;;0.70;0.70;;;4.90;60.20;;;;;;5074932;28;20181;-69
2022/12/07 12:19:34;;;;;;;0.40;0.40;;;4.90;60.40;;;;;;5074943;28;20197;-68
2022/12/07 12:22:12;;;;;;;0.38;0.38;;;4.80;59.60;;;;;;5075091;28;20165;-68
2022/12/07 12:24:40;;;;;;;0.32;0.32;;;4.80;62.30;;;;;;5074808;28;20174;-68
2022/12/07 12:27:11;;;;;;;0.40;0.40;;;5.00;64.30;;;;;;5074915;28;20556;-67
2022/12/07 12:29:40;;;;;;;0.50;0.50;;;5.20;66.20;;;;;;5073664;28;20188;-68
2022/12/07 12:32:12;;;;;;;0.40;0.40;;;5.30;69.90;;;;;;5074779;28;20622;-69
2022/12/07 12:34:46;;;;;;;0.70;0.70;;;5.30;73.00;;;;;;5073556;28;20256;-68
2022/12/07 12:37:35;;;;;;;0.40;0.40;;;5.40;76.30;;;;;;5073333;28;20672;-68
2022/12/07 12:40:16;;;;;;;1.40;1.40;;;5.30;80.40;;;;;;5072696;28;20229;-69
2022/12/07 12:42:58;;;;;;;0.40;0.40;;;5.50;75.50;;;;;;5073409;28;20167;-68
2022/12/07 12:45:29;;;;;;;0.40;0.40;;;5.60;70.90;;;;;;5073225;28;20174;-69
2022/12/07 12:48:24;;;;;;;0.40;0.40;;;5.80;67.40;;;;;;5073219;28;20326;-69
2022/12/07 12:51:28;;;;;;;0.30;0.30;;;6.00;67.70;;;;;;5074405;28;20205;-69
2022/12/07 12:54:13;;;;;;;0.50;0.50;;;6.10;74.00;;;;;;5074356;28;20169;-68
2022/12/07 12:57:15;;;;;;;1.05;1.05;;;6.10;77.30;;;;;;5073627;28;20197;-69
2022/12/07 12:59:52;;;;;;;3.55;1.50;;;6.10;77.90;;;;;;5074615;28;20549;-69
2022/12/07 13:02:28;;;;;;;0.55;0.55;;;6.10;78.20;;;;;;5074098;28;20170;-68
2022/12/07 13:05:05;;;;;;;1.52;0.98;;;6.10;80.70;;;;;;5073993;28;20247;-68
2022/12/07 13:07:52;;;;;;;1.98;1.88;;;5.90;82.30;;;;;;5072847;28;20197;-68
2022/12/07 13:10:22;;;;;;;1.27;0.85;;;5.60;84.10;;;;;;5074005;28;20161;-68
2022/12/07 13:13:14;;;;;;;0.45;0.45;;;5.50;85.50;;;;;;5074165;28;20248;-68
2022/12/07 13:15:45;;;;;;;0.60;0.60;;;5.40;86.50;;;;;;5072649;28;20661;-69
2022/12/07 13:18:28;;;;;;;2.33;2.20;;;5.00;87.80;;;;;;5073702;28;20193;-68
2022/12/07 13:20:56;;;;;;;1.80;1.23;;;4.80;89.40;;;;;;5073971;28;20200;-68
2022/12/07 13:23:36;;;;;;;1.08;1.05;;;4.80;90.30;;;;;;5073937;28;20166;-69
2022/12/07 13:26:30;;;;;;;1.30;1.30;;;4.90;90.50;;;;;;5073828;28;20244;-67